Terminal Aerodrome Forecast
Issued by NWS

Home | Current Version | Previous Version | Text Only | Print | Product List | Glossary On
Versions: 1 2 3 4 5 6 7 8 9 10 11 12 13 14 15 16 17
000
FTUS43 KGRB 282300
TAFATW
TAF
KATW 282340Z 2900/2924 14011KT P6SM VCSH BKN040 OVC080
     FM290030 13006KT 5SM -SHRA BKN040
     FM290600 12004KT 3SM RA BR BKN025 OVC035
     FM291200 17008KT 5SM -SHRA SCT017 OVC023
      TEMPO 2913/2917 2SM TSRA OVC015CB
     FM292100 17012KT 4SM -SHRA BR BKN020 OVC035=

USA.gov is the U.S. government's official web portal to all federal, state and local government web resources and services.